65153 UMMS-UUMU
Flight info
| Callsign | 65153 |
|---|---|
| Flight time | 1h 19m |
| Altitude | 31000 |
| Route | SORFO L979 PASUD T52 BILRU RAFFU NIGLI FUMBU |
| Aircraft | T134/M-SDE3GHIJ2J3J5M1RVWXY/LB2D1 |
Departure
| Time | 2026-04-27 15:12 |
|---|---|
| Airport | Minsk National Airport (UMMS) |
Arrival
| Time | 2026-04-27 16:32 |
|---|---|
| Airport | Chkalovskiy Air Base (UUMU) |
| Time | Latitude | Longitude | Altitude | Speed | Heading |
|---|---|---|---|---|---|
| 2026-04-27 14:53 | 53.89664 | 28.01532 | 676 ft | 0 kts | 3° |
| 2026-04-27 14:55 | 53.89663 | 28.01532 | 676 ft | 0 kts | 3° |
| 2026-04-27 14:57 | 53.89663 | 28.01531 | 676 ft | 0 kts | 4° |
| 2026-04-27 14:57 | 53.89652 | 28.01535 | 676 ft | 1 kts | 321° |
| 2026-04-27 14:57 | 53.89641 | 28.01551 | 676 ft | 2 kts | 329° |
| 2026-04-27 14:57 | 53.89630 | 28.01557 | 676 ft | 1 kts | 13° |
| 2026-04-27 14:58 | 53.89617 | 28.01557 | 676 ft | 1 kts | 323° |
| 2026-04-27 14:58 | 53.89613 | 28.01572 | 676 ft | 1 kts | 262° |
| 2026-04-27 14:58 | 53.89618 | 28.01592 | 676 ft | 1 kts | 249° |
| 2026-04-27 14:58 | 53.89617 | 28.01609 | 676 ft | 1 kts | 310° |
| 2026-04-27 14:59 | 53.89606 | 28.01618 | 676 ft | 2 kts | 347° |
| 2026-04-27 14:59 | 53.89595 | 28.01628 | 676 ft | 1 kts | 295° |
| 2026-04-27 14:59 | 53.89593 | 28.01636 | 676 ft | 0 kts | 285° |
| 2026-04-27 15:03 | 53.89594 | 28.01630 | 676 ft | 3 kts | 287° |
| 2026-04-27 15:04 | 53.89605 | 28.01590 | 676 ft | 0 kts | 307° |
| 2026-04-27 15:04 | 53.89613 | 28.01532 | 676 ft | 8 kts | 243° |
| 2026-04-27 15:04 | 53.89570 | 28.01498 | 676 ft | 4 kts | 153° |
| 2026-04-27 15:04 | 53.89534 | 28.01548 | 676 ft | 8 kts | 140° |
| 2026-04-27 15:05 | 53.89483 | 28.01624 | 676 ft | 11 kts | 137° |
| 2026-04-27 15:05 | 53.89417 | 28.01732 | 676 ft | 15 kts | 134° |
| 2026-04-27 15:05 | 53.89322 | 28.01864 | 676 ft | 26 kts | 141° |
| 2026-04-27 15:05 | 53.89161 | 28.02101 | 676 ft | 32 kts | 139° |
| 2026-04-27 15:06 | 53.89000 | 28.02339 | 676 ft | 17 kts | 130° |
| 2026-04-27 15:06 | 53.89014 | 28.02470 | 676 ft | 11 kts | 49° |
| 2026-04-27 15:06 | 53.89076 | 28.02595 | 676 ft | 14 kts | 52° |
| 2026-04-27 15:06 | 53.89031 | 28.02736 | 676 ft | 19 kts | 137° |
| 2026-04-27 15:07 | 53.88888 | 28.02952 | 676 ft | 33 kts | 139° |
| 2026-04-27 15:07 | 53.88708 | 28.03218 | 676 ft | 34 kts | 139° |
| 2026-04-27 15:07 | 53.88600 | 28.03376 | 676 ft | 17 kts | 139° |
| 2026-04-27 15:07 | 53.88525 | 28.03509 | 676 ft | 10 kts | 103° |
| 2026-04-27 15:08 | 53.88557 | 28.03629 | 676 ft | 15 kts | 49° |
| 2026-04-27 15:08 | 53.88646 | 28.03795 | 676 ft | 22 kts | 47° |
| 2026-04-27 15:08 | 53.88750 | 28.03997 | 676 ft | 24 kts | 49° |
| 2026-04-27 15:08 | 53.88873 | 28.04237 | 676 ft | 30 kts | 49° |
| 2026-04-27 15:09 | 53.89038 | 28.04556 | 676 ft | 47 kts | 49° |
| 2026-04-27 15:09 | 53.89188 | 28.04871 | 676 ft | 17 kts | 91° |
| 2026-04-27 15:09 | 53.89083 | 28.05066 | 676 ft | 29 kts | 139° |
| 2026-04-27 15:09 | 53.88905 | 28.05336 | 676 ft | 39 kts | 139° |
| 2026-04-27 15:10 | 53.88669 | 28.05683 | 676 ft | 52 kts | 139° |
| 2026-04-27 15:10 | 53.88336 | 28.06173 | 676 ft | 75 kts | 139° |
| 2026-04-27 15:10 | 53.87972 | 28.06713 | 676 ft | 43 kts | 142° |
| 2026-04-27 15:10 | 53.87963 | 28.06893 | 676 ft | 3 kts | 321° |
| 2026-04-27 15:11 | 53.88015 | 28.06979 | 676 ft | 19 kts | 51° |
| 2026-04-27 15:11 | 53.88082 | 28.06959 | 676 ft | 0 kts | 319° |
| 2026-04-27 15:11 | 53.88096 | 28.06939 | 676 ft | 5 kts | 319° |
| 2026-04-27 15:11 | 53.88098 | 28.06936 | 676 ft | 0 kts | 319° |
| 2026-04-27 15:12 | 53.88180 | 28.06813 | 676 ft | 53 kts | 319° |
| 2026-04-27 15:12 | 53.88646 | 28.06108 | 676 ft | 124 kts | 320° |
| 2026-04-27 15:12 | 53.89445 | 28.04942 | 781 ft | 170 kts | 319° |
| 2026-04-27 15:12 | 53.90348 | 28.03688 | 1575 ft | 176 kts | 321° |
| 2026-04-27 15:13 | 53.91373 | 28.02119 | 1736 ft | 222 kts | 319° |
| 2026-04-27 15:13 | 53.92554 | 28.00321 | 2492 ft | 229 kts | 315° |
| 2026-04-27 15:13 | 53.93638 | 27.98388 | 2955 ft | 230 kts | 317° |
| 2026-04-27 15:13 | 53.94892 | 27.96816 | 3551 ft | 219 kts | 323° |
| 2026-04-27 15:14 | 53.96214 | 27.95779 | 4070 ft | 208 kts | 353° |
| 2026-04-27 15:14 | 53.97600 | 27.96059 | 4515 ft | 199 kts | 23° |
| 2026-04-27 15:14 | 53.98829 | 27.96975 | 4899 ft | 194 kts | 17° |
| 2026-04-27 15:14 | 54.00169 | 27.97685 | 5322 ft | 206 kts | 18° |
| 2026-04-27 15:15 | 54.01566 | 27.98381 | 5807 ft | 214 kts | 15° |
| 2026-04-27 15:15 | 54.02999 | 27.99076 | 6331 ft | 220 kts | 15° |
| 2026-04-27 15:15 | 54.04471 | 27.99791 | 6881 ft | 224 kts | 22° |
| 2026-04-27 15:15 | 54.05721 | 28.01302 | 7437 ft | 225 kts | 52° |
| 2026-04-27 15:16 | 54.06457 | 28.03652 | 8004 ft | 227 kts | 75° |
| 2026-04-27 15:16 | 54.06556 | 28.06288 | 8564 ft | 227 kts | 96° |
| 2026-04-27 15:16 | 54.06495 | 28.08990 | 9143 ft | 234 kts | 89° |
| 2026-04-27 15:16 | 54.06454 | 28.11818 | 9784 ft | 244 kts | 90° |
| 2026-04-27 15:17 | 54.06451 | 28.14723 | 10469 ft | 252 kts | 91° |
| 2026-04-27 15:17 | 54.06433 | 28.17718 | 11193 ft | 257 kts | 90° |
| 2026-04-27 15:17 | 54.06420 | 28.20759 | 11937 ft | 262 kts | 90° |
| 2026-04-27 15:17 | 54.06491 | 28.23809 | 12687 ft | 265 kts | 81° |
| 2026-04-27 15:18 | 54.06708 | 28.26908 | 13454 ft | 267 kts | 85° |
| 2026-04-27 15:18 | 54.06904 | 28.30056 | 14228 ft | 269 kts | 83° |
| 2026-04-27 15:18 | 54.07082 | 28.33186 | 14992 ft | 270 kts | 83° |
| 2026-04-27 15:18 | 54.07280 | 28.36359 | 15760 ft | 271 kts | 84° |
| 2026-04-27 15:19 | 54.07624 | 28.39495 | 16512 ft | 271 kts | 67° |
| 2026-04-27 15:19 | 54.08583 | 28.42181 | 17245 ft | 271 kts | 54° |
| 2026-04-27 15:19 | 54.09586 | 28.44920 | 17982 ft | 271 kts | 57° |
| 2026-04-27 15:19 | 54.10593 | 28.47603 | 18697 ft | 271 kts | 59° |
| 2026-04-27 15:20 | 54.11562 | 28.50295 | 19394 ft | 271 kts | 57° |
| 2026-04-27 15:20 | 54.12548 | 28.53025 | 20088 ft | 271 kts | 58° |
| 2026-04-27 15:20 | 54.13531 | 28.55736 | 20763 ft | 270 kts | 58° |
| 2026-04-27 15:20 | 54.14507 | 28.58445 | 21422 ft | 270 kts | 58° |
| 2026-04-27 15:21 | 54.15475 | 28.61127 | 22059 ft | 269 kts | 58° |
| 2026-04-27 15:21 | 54.16452 | 28.63838 | 22686 ft | 269 kts | 58° |
| 2026-04-27 15:21 | 54.17424 | 28.66537 | 23295 ft | 268 kts | 58° |
| 2026-04-27 15:21 | 54.18426 | 28.69205 | 23888 ft | 268 kts | 57° |
| 2026-04-27 15:22 | 54.19442 | 28.71835 | 24460 ft | 267 kts | 57° |
| 2026-04-27 15:22 | 54.20429 | 28.74493 | 25015 ft | 266 kts | 58° |
| 2026-04-27 15:22 | 54.21404 | 28.77156 | 25553 ft | 266 kts | 58° |
| 2026-04-27 15:22 | 54.22367 | 28.79819 | 26072 ft | 265 kts | 58° |
| 2026-04-27 15:23 | 54.23341 | 28.82523 | 26584 ft | 265 kts | 58° |
| 2026-04-27 15:23 | 54.24288 | 28.85166 | 27067 ft | 265 kts | 58° |
| 2026-04-27 15:23 | 54.25252 | 28.87859 | 27544 ft | 264 kts | 59° |
| 2026-04-27 15:23 | 54.26197 | 28.90505 | 27998 ft | 264 kts | 59° |
| 2026-04-27 15:24 | 54.27156 | 28.93193 | 28444 ft | 263 kts | 59° |
| 2026-04-27 15:24 | 54.28098 | 28.95837 | 28866 ft | 262 kts | 59° |
| 2026-04-27 15:24 | 54.29036 | 28.98471 | 29257 ft | 259 kts | 59° |
| 2026-04-27 15:24 | 54.29940 | 29.01128 | 29541 ft | 262 kts | 67° |
| 2026-04-27 15:25 | 54.30397 | 29.04192 | 29561 ft | 273 kts | 82° |
| 2026-04-27 15:25 | 54.30733 | 29.07481 | 29659 ft | 284 kts | 79° |
| 2026-04-27 15:25 | 54.31094 | 29.10827 | 29883 ft | 289 kts | 79° |
| 2026-04-27 15:25 | 54.31459 | 29.14187 | 30373 ft | 285 kts | 79° |
| 2026-04-27 15:26 | 54.31823 | 29.17526 | 30690 ft | 287 kts | 79° |
| 2026-04-27 15:26 | 54.32190 | 29.20900 | 30906 ft | 293 kts | 79° |
| 2026-04-27 15:26 | 54.32570 | 29.24392 | 30983 ft | 304 kts | 79° |
| 2026-04-27 15:26 | 54.32962 | 29.28007 | 30976 ft | 314 kts | 79° |
| 2026-04-27 15:27 | 54.33782 | 29.35592 | 30974 ft | 332 kts | 79° |
| 2026-04-27 15:27 | 54.34639 | 29.43585 | 30973 ft | 350 kts | 79° |
| 2026-04-27 15:28 | 54.35540 | 29.52058 | 30972 ft | 367 kts | 79° |
| 2026-04-27 15:28 | 54.36463 | 29.60803 | 30971 ft | 383 kts | 79° |
| 2026-04-27 15:29 | 54.37420 | 29.69917 | 30969 ft | 396 kts | 80° |
| 2026-04-27 15:29 | 54.38400 | 29.79326 | 30968 ft | 407 kts | 80° |
| 2026-04-27 15:30 | 54.39395 | 29.88977 | 30968 ft | 415 kts | 80° |
| 2026-04-27 15:30 | 54.41147 | 29.98414 | 30982 ft | 422 kts | 64° |
| 2026-04-27 15:31 | 54.43557 | 30.07667 | 30967 ft | 428 kts | 66° |
| 2026-04-27 15:31 | 54.45934 | 30.17059 | 30966 ft | 432 kts | 66° |
| 2026-04-27 15:32 | 54.48329 | 30.26569 | 30965 ft | 436 kts | 66° |
| 2026-04-27 15:32 | 54.50729 | 30.36139 | 30965 ft | 439 kts | 66° |
| 2026-04-27 15:33 | 54.53142 | 30.45807 | 30965 ft | 441 kts | 66° |
| 2026-04-27 15:33 | 54.55548 | 30.55489 | 30965 ft | 443 kts | 66° |
| 2026-04-27 15:34 | 54.57979 | 30.65312 | 30964 ft | 444 kts | 67° |
| 2026-04-27 15:34 | 54.60383 | 30.75073 | 30964 ft | 445 kts | 67° |
| 2026-04-27 15:35 | 54.62806 | 30.84952 | 30964 ft | 446 kts | 67° |
| 2026-04-27 15:35 | 54.65203 | 30.94772 | 30964 ft | 446 kts | 67° |
| 2026-04-27 15:36 | 54.67582 | 31.04672 | 30962 ft | 447 kts | 70° |
| 2026-04-27 15:36 | 54.69427 | 31.14908 | 30965 ft | 447 kts | 73° |
| 2026-04-27 15:37 | 54.71254 | 31.25145 | 30964 ft | 447 kts | 73° |
| 2026-04-27 15:37 | 54.73090 | 31.35398 | 30964 ft | 447 kts | 72° |
| 2026-04-27 15:38 | 54.74918 | 31.45645 | 30964 ft | 448 kts | 72° |
| 2026-04-27 15:38 | 54.76729 | 31.55862 | 30964 ft | 448 kts | 72° |
| 2026-04-27 15:39 | 54.78541 | 31.66147 | 30964 ft | 448 kts | 73° |
| 2026-04-27 15:39 | 54.80347 | 31.76454 | 30964 ft | 448 kts | 73° |
| 2026-04-27 15:40 | 54.82140 | 31.86749 | 30964 ft | 448 kts | 73° |
| 2026-04-27 15:40 | 54.83926 | 31.97059 | 30964 ft | 448 kts | 73° |
| 2026-04-27 15:41 | 54.85715 | 32.07452 | 30964 ft | 449 kts | 73° |
| 2026-04-27 15:41 | 54.87487 | 32.17806 | 30964 ft | 449 kts | 73° |
| 2026-04-27 15:42 | 54.89246 | 32.28140 | 30964 ft | 449 kts | 73° |
| 2026-04-27 15:42 | 54.90999 | 32.38497 | 30964 ft | 449 kts | 73° |
| 2026-04-27 15:43 | 54.92753 | 32.48923 | 30964 ft | 449 kts | 73° |
| 2026-04-27 15:43 | 54.94491 | 32.59316 | 30964 ft | 449 kts | 73° |
| 2026-04-27 15:44 | 54.96215 | 32.69690 | 30964 ft | 449 kts | 74° |
| 2026-04-27 15:44 | 54.97945 | 32.80158 | 30964 ft | 449 kts | 74° |
| 2026-04-27 15:45 | 54.99661 | 32.90612 | 30964 ft | 449 kts | 74° |
| 2026-04-27 15:45 | 55.01356 | 33.00997 | 30964 ft | 449 kts | 74° |
| 2026-04-27 15:46 | 55.03058 | 33.11495 | 30964 ft | 449 kts | 74° |
| 2026-04-27 15:46 | 55.04746 | 33.21974 | 30964 ft | 449 kts | 74° |
| 2026-04-27 15:47 | 55.06434 | 33.32518 | 30964 ft | 449 kts | 74° |
| 2026-04-27 15:47 | 55.08097 | 33.42966 | 30964 ft | 449 kts | 74° |
| 2026-04-27 15:48 | 55.09759 | 33.53480 | 30964 ft | 449 kts | 74° |
| 2026-04-27 15:49 | 55.12224 | 33.69180 | 30964 ft | 449 kts | 75° |
| 2026-04-27 15:49 | 55.13873 | 33.79760 | 30964 ft | 449 kts | 75° |
| 2026-04-27 15:50 | 55.15496 | 33.90251 | 30964 ft | 449 kts | 75° |
| 2026-04-27 15:50 | 55.17116 | 34.00791 | 30964 ft | 449 kts | 75° |
| 2026-04-27 15:51 | 55.18724 | 34.11317 | 30964 ft | 449 kts | 75° |
| 2026-04-27 15:51 | 55.20330 | 34.21913 | 30964 ft | 449 kts | 75° |
| 2026-04-27 15:52 | 55.21914 | 34.32424 | 30964 ft | 449 kts | 75° |
| 2026-04-27 15:52 | 55.23495 | 34.42985 | 30964 ft | 449 kts | 75° |
| 2026-04-27 15:53 | 55.25072 | 34.53584 | 30964 ft | 449 kts | 75° |
| 2026-04-27 15:53 | 55.26641 | 34.64207 | 30964 ft | 449 kts | 75° |
| 2026-04-27 15:54 | 55.28196 | 34.74803 | 30964 ft | 449 kts | 76° |
| 2026-04-27 15:54 | 55.29736 | 34.85365 | 30964 ft | 449 kts | 76° |
| 2026-04-27 15:55 | 55.31279 | 34.96021 | 30964 ft | 449 kts | 76° |
| 2026-04-27 15:55 | 55.32801 | 35.06606 | 30964 ft | 449 kts | 76° |
| 2026-04-27 15:56 | 55.34323 | 35.17262 | 30920 ft | 450 kts | 76° |
| 2026-04-27 15:56 | 55.35085 | 35.22626 | 30509 ft | 448 kts | 76° |
| 2026-04-27 15:56 | 55.35828 | 35.27879 | 30116 ft | 443 kts | 76° |
| 2026-04-27 15:56 | 55.36560 | 35.33064 | 29719 ft | 438 kts | 76° |
| 2026-04-27 15:57 | 55.37288 | 35.38234 | 29318 ft | 434 kts | 76° |
| 2026-04-27 15:57 | 55.38006 | 35.43357 | 28917 ft | 430 kts | 76° |
| 2026-04-27 15:57 | 55.38714 | 35.48413 | 28517 ft | 427 kts | 76° |
| 2026-04-27 15:57 | 55.39422 | 35.53496 | 28119 ft | 427 kts | 76° |
| 2026-04-27 15:58 | 55.39855 | 35.58593 | 27720 ft | 427 kts | 88° |
| 2026-04-27 15:58 | 55.39699 | 35.63812 | 27330 ft | 425 kts | 93° |
| 2026-04-27 15:58 | 55.39538 | 35.69017 | 26941 ft | 424 kts | 94° |
| 2026-04-27 15:58 | 55.39330 | 35.74171 | 26558 ft | 423 kts | 94° |
| 2026-04-27 15:59 | 55.39141 | 35.79306 | 26178 ft | 421 kts | 94° |
| 2026-04-27 15:59 | 55.38947 | 35.84427 | 25801 ft | 420 kts | 94° |
| 2026-04-27 15:59 | 55.38748 | 35.89513 | 25498 ft | 417 kts | 94° |
| 2026-04-27 15:59 | 55.38553 | 35.94600 | 25191 ft | 414 kts | 94° |
| 2026-04-27 16:00 | 55.38357 | 35.99560 | 24890 ft | 411 kts | 94° |
| 2026-04-27 16:00 | 55.38223 | 36.02951 | 24682 ft | 410 kts | 94° |
| 2026-04-27 16:00 | 55.37959 | 36.09551 | 24277 ft | 407 kts | 94° |
| 2026-04-27 16:00 | 55.37756 | 36.14542 | 23969 ft | 405 kts | 94° |
| 2026-04-27 16:01 | 55.37555 | 36.19470 | 23664 ft | 403 kts | 94° |
| 2026-04-27 16:01 | 55.37353 | 36.24336 | 23362 ft | 401 kts | 94° |
| 2026-04-27 16:01 | 55.37149 | 36.29245 | 23057 ft | 400 kts | 94° |
| 2026-04-27 16:01 | 55.36945 | 36.34079 | 22756 ft | 398 kts | 94° |
| 2026-04-27 16:02 | 55.36739 | 36.38913 | 22456 ft | 396 kts | 94° |
| 2026-04-27 16:02 | 55.36530 | 36.43771 | 22153 ft | 395 kts | 94° |
| 2026-04-27 16:02 | 55.36326 | 36.48520 | 21858 ft | 393 kts | 94° |
| 2026-04-27 16:02 | 55.36118 | 36.53304 | 21560 ft | 392 kts | 94° |
| 2026-04-27 16:03 | 55.35909 | 36.58071 | 21263 ft | 390 kts | 94° |
| 2026-04-27 16:03 | 55.35699 | 36.62812 | 20968 ft | 389 kts | 94° |
| 2026-04-27 16:03 | 55.35492 | 36.67455 | 20679 ft | 387 kts | 95° |
| 2026-04-27 16:03 | 55.35284 | 36.72039 | 20394 ft | 386 kts | 95° |
| 2026-04-27 16:04 | 55.35071 | 36.76698 | 20105 ft | 385 kts | 95° |
| 2026-04-27 16:04 | 55.34854 | 36.81395 | 19813 ft | 383 kts | 95° |
| 2026-04-27 16:04 | 55.34639 | 36.86011 | 19526 ft | 382 kts | 95° |
| 2026-04-27 16:04 | 55.34421 | 36.90686 | 19236 ft | 380 kts | 95° |
| 2026-04-27 16:05 | 55.34204 | 36.95299 | 18949 ft | 379 kts | 95° |
| 2026-04-27 16:05 | 55.33987 | 36.99873 | 18666 ft | 378 kts | 95° |
| 2026-04-27 16:05 | 55.33766 | 37.04485 | 18380 ft | 376 kts | 95° |
| 2026-04-27 16:05 | 55.33542 | 37.09107 | 18093 ft | 375 kts | 95° |
| 2026-04-27 16:06 | 55.33319 | 37.13686 | 17810 ft | 374 kts | 95° |
| 2026-04-27 16:06 | 55.33096 | 37.18231 | 17528 ft | 372 kts | 95° |
| 2026-04-27 16:06 | 55.32872 | 37.22756 | 17248 ft | 371 kts | 95° |
| 2026-04-27 16:06 | 55.32646 | 37.27280 | 16968 ft | 370 kts | 95° |
| 2026-04-27 16:07 | 55.32419 | 37.31791 | 16689 ft | 368 kts | 95° |
| 2026-04-27 16:07 | 55.32195 | 37.36222 | 16415 ft | 367 kts | 95° |
| 2026-04-27 16:07 | 55.31968 | 37.40651 | 16141 ft | 366 kts | 95° |
| 2026-04-27 16:07 | 55.31739 | 37.45100 | 15866 ft | 364 kts | 95° |
| 2026-04-27 16:08 | 55.31513 | 37.49475 | 15596 ft | 363 kts | 95° |
| 2026-04-27 16:08 | 55.31281 | 37.53914 | 15322 ft | 362 kts | 95° |
| 2026-04-27 16:08 | 55.31051 | 37.58295 | 15051 ft | 360 kts | 95° |
| 2026-04-27 16:08 | 55.30818 | 37.62713 | 14778 ft | 359 kts | 95° |
| 2026-04-27 16:09 | 55.30589 | 37.67028 | 14511 ft | 358 kts | 95° |
| 2026-04-27 16:09 | 55.30125 | 37.75685 | 13977 ft | 355 kts | 95° |
| 2026-04-27 16:09 | 55.29892 | 37.79992 | 13711 ft | 354 kts | 95° |
| 2026-04-27 16:10 | 55.29422 | 37.88600 | 13179 ft | 352 kts | 95° |
| 2026-04-27 16:10 | 55.28952 | 37.97098 | 12655 ft | 349 kts | 95° |
| 2026-04-27 16:11 | 55.28717 | 38.01296 | 12395 ft | 348 kts | 95° |
| 2026-04-27 16:11 | 55.28244 | 38.09713 | 11875 ft | 345 kts | 95° |
| 2026-04-27 16:12 | 55.27770 | 38.18033 | 11365 ft | 343 kts | 95° |
| 2026-04-27 16:12 | 55.27531 | 38.22189 | 11168 ft | 340 kts | 95° |
| 2026-04-27 16:12 | 55.27060 | 38.30312 | 10770 ft | 336 kts | 95° |
| 2026-04-27 16:13 | 55.26822 | 38.34388 | 10577 ft | 334 kts | 95° |
| 2026-04-27 16:13 | 55.26359 | 38.42255 | 10610 ft | 319 kts | 95° |
| 2026-04-27 16:13 | 55.26129 | 38.46123 | 10603 ft | 315 kts | 95° |
| 2026-04-27 16:14 | 55.25679 | 38.53633 | 10564 ft | 309 kts | 95° |
| 2026-04-27 16:14 | 55.25559 | 38.61067 | 10493 ft | 305 kts | 75° |
| 2026-04-27 16:15 | 55.27875 | 38.67149 | 10409 ft | 303 kts | 36° |
| 2026-04-27 16:15 | 55.31807 | 38.69250 | 10318 ft | 302 kts | 356° |
| 2026-04-27 16:16 | 55.35670 | 38.66979 | 10199 ft | 285 kts | 339° |
| 2026-04-27 16:16 | 55.39319 | 38.64889 | 9988 ft | 270 kts | 345° |
| 2026-04-27 16:17 | 55.42911 | 38.63392 | 9716 ft | 260 kts | 348° |
| 2026-04-27 16:17 | 55.46422 | 38.62022 | 9356 ft | 252 kts | 348° |
| 2026-04-27 16:18 | 55.49987 | 38.60630 | 8674 ft | 272 kts | 348° |
| 2026-04-27 16:18 | 55.53666 | 38.59188 | 8455 ft | 270 kts | 348° |
| 2026-04-27 16:19 | 55.55490 | 38.58472 | 8344 ft | 269 kts | 348° |
| 2026-04-27 16:19 | 55.57330 | 38.57749 | 8218 ft | 269 kts | 348° |
| 2026-04-27 16:20 | 55.62764 | 38.55609 | 7825 ft | 267 kts | 348° |
| 2026-04-27 16:20 | 55.64578 | 38.54895 | 7665 ft | 268 kts | 348° |
| 2026-04-27 16:20 | 55.68247 | 38.53445 | 7353 ft | 269 kts | 348° |
| 2026-04-27 16:21 | 55.70057 | 38.52729 | 7219 ft | 268 kts | 348° |
| 2026-04-27 16:21 | 55.75154 | 38.49054 | 6664 ft | 272 kts | 313° |
| 2026-04-27 16:22 | 55.76305 | 38.46380 | 6566 ft | 269 kts | 307° |
| 2026-04-27 16:22 | 55.78551 | 38.41168 | 6327 ft | 267 kts | 308° |
| 2026-04-27 16:22 | 55.79683 | 38.38543 | 6167 ft | 268 kts | 308° |
| 2026-04-27 16:23 | 55.80796 | 38.35959 | 5894 ft | 259 kts | 308° |
| 2026-04-27 16:23 | 55.82767 | 38.30638 | 4735 ft | 258 kts | 298° |
| 2026-04-27 16:23 | 55.83467 | 38.27747 | 4173 ft | 256 kts | 281° |
| 2026-04-27 16:24 | 55.83461 | 38.24773 | 4270 ft | 229 kts | 257° |
| 2026-04-27 16:24 | 55.81807 | 38.20657 | 4208 ft | 197 kts | 211° |
| 2026-04-27 16:25 | 55.79491 | 38.17993 | 4054 ft | 222 kts | 213° |
| 2026-04-27 16:25 | 55.76292 | 38.16372 | 4488 ft | 261 kts | 174° |
| 2026-04-27 16:26 | 55.73049 | 38.19180 | 5426 ft | 247 kts | 136° |
| 2026-04-27 16:26 | 55.71446 | 38.23564 | 5755 ft | 210 kts | 89° |
| 2026-04-27 16:27 | 55.72395 | 38.28581 | 5047 ft | 228 kts | 62° |
| 2026-04-27 16:27 | 55.75556 | 38.34173 | 4026 ft | 196 kts | 9° |
| 2026-04-27 16:28 | 55.78035 | 38.32639 | 3486 ft | 190 kts | 319° |
| 2026-04-27 16:28 | 55.79394 | 38.28509 | 3149 ft | 198 kts | 293° |
| 2026-04-27 16:29 | 55.81320 | 38.22310 | 2345 ft | 184 kts | 300° |
| 2026-04-27 16:30 | 55.82604 | 38.18399 | 2189 ft | 191 kts | 299° |
| 2026-04-27 16:30 | 55.83696 | 38.15035 | 1783 ft | 200 kts | 303° |
| 2026-04-27 16:31 | 55.85970 | 38.09890 | 855 ft | 190 kts | 309° |
| 2026-04-27 16:31 | 55.87490 | 38.06649 | 507 ft | 144 kts | 310° |
| 2026-04-27 16:32 | 55.88316 | 38.04939 | 507 ft | 72 kts | 312° |
| 2026-04-27 16:32 | 55.88544 | 38.04463 | 507 ft | 35 kts | 310° |
| 2026-04-27 16:33 | 55.88777 | 38.04197 | 507 ft | 6 kts | 14° |
| 2026-04-27 16:33 | 55.88811 | 38.04214 | 507 ft | 4 kts | 14° |
| 2026-04-27 16:33 | 55.88916 | 38.04247 | 507 ft | 22 kts | 9° |
| 2026-04-27 16:33 | 55.89017 | 38.04270 | 507 ft | 21 kts | 4° |
| 2026-04-27 16:34 | 55.89118 | 38.04279 | 507 ft | 7 kts | 316° |
| 2026-04-27 16:34 | 55.89036 | 38.04257 | 507 ft | 34 kts | 148° |
| 2026-04-27 16:34 | 55.88907 | 38.04564 | 507 ft | 38 kts | 46° |
| 2026-04-27 16:34 | 55.88944 | 38.04613 | 507 ft | 21 kts | 32° |
| 2026-04-27 16:35 | 55.89101 | 38.04825 | 507 ft | 32 kts | 40° |
| 2026-04-27 16:35 | 55.89119 | 38.05020 | 507 ft | 26 kts | 133° |